Time;durP1;ratioP1;P1;durP2;ratioP2;P2;SDS_P1;SDS_P2;PMS_P1;PMS_P2;Temp;Humidity;BMP_temperature;BMP_pressure;BME280_temperature;BME280_humidity;BME280_pressure;Samples;Min_cycle;Max_cycle;Signal;HPM_P1;HPM_P2
2024/02/22 00:00:07;;;;;;;0.35;0.22;;;16.20;80.80;;;;;;5008622;28;20169;-76
2024/02/22 00:02:33;;;;;;;0.35;0.13;;;16.20;80.80;;;;;;4990374;28;20140;-77
2024/02/22 00:05:00;;;;;;;0.30;0.30;;;16.20;80.90;;;;;;5023062;28;20499;-76
2024/02/22 00:07:25;;;;;;;0.38;0.32;;;16.20;80.80;;;;;;5022215;28;20630;-76
2024/02/22 00:09:53;;;;;;;0.22;0.20;;;16.30;80.80;;;;;;4994498;28;20050;-76
2024/02/22 00:12:18;;;;;;;0.17;0.17;;;16.20;80.80;;;;;;5006543;28;20534;-76
2024/02/22 00:14:44;;;;;;;0.55;0.30;;;16.20;80.80;;;;;;5023674;28;20034;-76
2024/02/22 00:17:09;;;;;;;0.15;0.15;;;16.20;80.80;;;;;;5007477;28;20088;-76
2024/02/22 00:19:35;;;;;;;0.50;0.20;;;16.20;80.80;;;;;;5001727;28;20056;-76
2024/02/22 00:22:01;;;;;;;0.10;0.10;;;16.20;80.90;;;;;;5005814;28;20646;-76
2024/02/22 00:24:27;;;;;;;0.30;0.30;;;16.20;80.90;;;;;;5001774;28;20663;-76
2024/02/22 00:26:53;;;;;;;0.13;0.10;;;16.20;80.90;;;;;;5003486;28;20508;-76
2024/02/22 00:29:18;;;;;;;0.22;0.15;;;16.20;80.90;;;;;;5000820;28;20041;-76
2024/02/22 00:31:44;;;;;;;0.20;0.20;;;16.20;80.90;;;;;;5007448;28;20042;-76
2024/02/22 00:34:09;;;;;;;0.20;0.20;;;16.20;80.90;;;;;;5008127;28;20044;-77
2024/02/22 00:36:42;;;;;;;0.32;0.10;;;16.20;80.90;;;;;;4992069;28;20566;-76
2024/02/22 00:39:09;;;;;;;0.10;0.10;;;16.20;80.90;;;;;;5006675;28;20062;-76
2024/02/22 00:41:35;;;;;;;0.10;0.10;;;16.20;80.90;;;;;;4998741;28;20046;-75
2024/02/22 00:44:01;;;;;;;0.20;0.20;;;16.20;80.90;;;;;;5000620;28;20047;-76
2024/02/22 00:46:26;;;;;;;0.30;0.20;;;16.20;80.90;;;;;;4996441;28;20165;-76
2024/02/22 00:48:52;;;;;;;0.10;0.10;;;16.20;80.90;;;;;;4989672;28;20038;-76
2024/02/22 00:51:17;;;;;;;0.30;0.20;;;16.20;80.90;;;;;;5000753;28;20042;-76
2024/02/22 00:53:43;;;;;;;0.30;0.30;;;16.20;80.90;;;;;;4998391;28;20038;-76
2024/02/22 00:56:09;;;;;;;0.55;0.10;;;16.10;80.90;;;;;;5005012;28;20436;-76
2024/02/22 00:58:34;;;;;;;0.10;0.10;;;16.20;80.90;;;;;;5002936;28;20433;-76
2024/02/22 01:01:00;;;;;;;0.20;0.20;;;16.20;81.00;;;;;;5023506;28;20046;-76
2024/02/22 01:03:28;;;;;;;0.15;0.15;;;16.20;81.00;;;;;;5016790;28;20038;-76
2024/02/22 01:05:53;;;;;;;0.75;0.10;;;16.20;81.00;;;;;;5002364;28;20523;-76
2024/02/22 01:08:19;;;;;;;0.05;0.05;;;16.20;81.00;;;;;;4994878;28;20046;-76
2024/02/22 01:10:45;;;;;;;0.20;0.20;;;16.10;81.00;;;;;;4998335;28;20532;-76
2024/02/22 01:13:10;;;;;;;0.10;0.10;;;16.20;81.20;;;;;;5006130;28;20184;-77
2024/02/22 01:15:36;;;;;;;0.05;0.05;;;16.10;80.90;;;;;;4987772;28;20496;-76
2024/02/22 01:18:01;;;;;;;0.30;0.13;;;16.20;81.10;;;;;;5001216;28;20041;-76
2024/02/22 01:20:27;;;;;;;0.20;0.10;;;16.10;81.00;;;;;;4992605;28;20049;-76
2024/02/22 01:22:52;;;;;;;0.10;0.10;;;16.10;81.10;;;;;;5003699;28;20520;-76
2024/02/22 01:25:18;;;;;;;0.10;0.10;;;16.10;81.00;;;;;;5005102;28;20065;-76
2024/02/22 01:27:44;;;;;;;0.00;0.00;;;16.20;81.00;;;;;;4974804;28;20392;-76
2024/02/22 01:30:10;;;;;;;0.10;0.10;;;16.20;81.20;;;;;;5018264;28;20117;-76
2024/02/22 01:32:35;;;;;;;0.00;0.00;;;16.10;81.10;;;;;;5025260;28;20112;-76
2024/02/22 01:35:01;;;;;;;0.20;0.10;;;16.10;81.10;;;;;;4992419;28;20037;-76
2024/02/22 01:37:27;;;;;;;0.10;0.10;;;16.10;81.10;;;;;;5020905;28;20488;-76
2024/02/22 01:39:52;;;;;;;0.28;0.20;;;16.10;80.90;;;;;;4986207;28;20053;-76
2024/02/22 01:42:18;;;;;;;0.10;0.10;;;16.10;81.10;;;;;;5000763;28;20061;-76
2024/02/22 01:44:43;;;;;;;0.13;0.05;;;16.10;81.10;;;;;;4968897;28;20043;-76
2024/02/22 01:47:09;;;;;;;0.10;0.10;;;16.10;81.00;;;;;;5013997;28;20527;-76
2024/02/22 01:49:35;;;;;;;0.00;0.00;;;16.10;81.10;;;;;;5015272;28;20113;-76
2024/02/22 01:52:01;;;;;;;0.10;0.10;;;16.10;81.10;;;;;;5005064;28;20030;-76
2024/02/22 01:54:26;;;;;;;0.10;0.10;;;16.10;81.80;;;;;;5002996;28;20583;-76
2024/02/22 01:56:52;;;;;;;0.32;0.20;;;16.10;81.00;;;;;;4970546;28;20050;-76
2024/02/22 01:59:18;;;;;;;0.10;0.10;;;16.10;81.00;;;;;;4983640;28;20515;-76
2024/02/22 02:01:45;;;;;;;0.10;0.10;;;16.10;81.00;;;;;;5000225;28;21062;-76
2024/02/22 02:04:12;;;;;;;0.10;0.10;;;16.10;81.10;;;;;;4995470;28;20065;-76
2024/02/22 02:06:38;;;;;;;0.10;0.10;;;16.10;81.00;;;;;;4980466;28;20050;-76
2024/02/22 02:09:04;;;;;;;0.20;0.10;;;16.10;81.80;;;;;;5015691;28;21588;-76
2024/02/22 02:11:29;;;;;;;0.10;0.10;;;16.10;81.00;;;;;;5017702;28;20408;-76
2024/02/22 02:13:55;;;;;;;0.20;0.10;;;16.10;81.10;;;;;;5011504;28;20046;-76
2024/02/22 02:16:21;;;;;;;0.20;0.10;;;16.10;80.90;;;;;;5000161;28;21800;-76
2024/02/22 02:18:46;;;;;;;0.10;0.10;;;16.10;81.00;;;;;;4982668;28;20096;-76
2024/02/22 02:21:32;;;;;;;0.00;0.00;;;16.10;80.90;;;;;;5003710;28;20051;-76
2024/02/22 02:24:29;;;;;;;0.08;0.00;;;16.10;80.80;;;;;;5026909;28;20508;-76
2024/02/22 02:26:55;;;;;;;0.00;0.00;;;16.10;80.90;;;;;;5000727;28;20049;-76
2024/02/22 02:29:23;;;;;;;0.13;0.10;;;16.10;80.90;;;;;;5002528;28;20042;-76
2024/02/22 02:31:50;;;;;;;0.20;0.00;;;16.10;81.00;;;;;;4987120;28;20121;-76
2024/02/22 02:34:16;;;;;;;0.20;0.03;;;16.10;81.00;;;;;;4989226;28;20038;-77
2024/02/22 02:36:41;;;;;;;0.10;0.10;;;16.10;81.10;;;;;;5014470;28;20068;-76
2024/02/22 02:39:07;;;;;;;0.00;0.00;;;16.00;81.10;;;;;;4993969;28;20680;-76
2024/02/22 02:41:32;;;;;;;0.10;0.10;;;16.00;80.90;;;;;;5003803;28;20068;-76
2024/02/22 02:43:58;;;;;;;0.10;0.10;;;16.00;81.10;;;;;;5016217;28;20046;-77
2024/02/22 02:46:23;;;;;;;0.00;0.00;;;16.00;81.10;;;;;;4998539;28;20080;-76
2024/02/22 02:48:49;;;;;;;0.10;0.10;;;16.10;81.00;;;;;;4999528;28;20145;-76
2024/02/22 02:51:14;;;;;;;0.10;0.10;;;16.10;80.90;;;;;;4985114;28;20053;-76
2024/02/22 02:53:42;;;;;;;0.10;0.10;;;16.10;81.00;;;;;;5012142;28;20593;-76
2024/02/22 02:56:07;;;;;;;0.00;0.00;;;16.00;81.00;;;;;;5001254;28;20093;-76
2024/02/22 02:58:33;;;;;;;0.00;0.00;;;16.10;80.90;;;;;;4998036;28;20503;-76
2024/02/22 03:00:58;;;;;;;0.10;0.10;;;16.10;80.80;;;;;;4988532;28;20038;-76
2024/02/22 03:03:24;;;;;;;0.10;0.10;;;16.10;81.20;;;;;;5000735;28;20076;-76
2024/02/22 03:05:50;;;;;;;0.08;0.08;;;16.10;81.10;;;;;;5000875;28;20037;-76
2024/02/22 03:08:15;;;;;;;0.00;0.00;;;16.00;80.80;;;;;;5013616;28;20065;-76
2024/02/22 03:10:41;;;;;;;0.00;0.00;;;16.00;81.10;;;;;;4981513;28;20129;-76
2024/02/22 03:13:11;;;;;;;0.20;0.00;;;16.00;80.90;;;;;;4987345;28;20034;-76
2024/02/22 03:15:37;;;;;;;0.10;0.10;;;16.00;81.10;;;;;;4987430;28;20058;-76
2024/02/22 03:18:04;;;;;;;0.10;0.10;;;16.10;81.10;;;;;;4982440;28;20101;-76
2024/02/22 03:20:29;;;;;;;0.03;0.03;;;16.00;81.00;;;;;;5000863;28;20050;-76
2024/02/22 03:22:55;;;;;;;0.00;0.00;;;16.10;81.00;;;;;;4970215;28;20484;-76
2024/02/22 03:25:21;;;;;;;0.20;0.00;;;16.10;81.00;;;;;;4996207;28;20045;-76
2024/02/22 03:27:49;;;;;;;0.32;0.10;;;16.00;81.10;;;;;;4981345;28;20034;-76
2024/02/22 03:30:16;;;;;;;0.00;0.00;;;16.00;81.00;;;;;;5004037;28;20045;-76
2024/02/22 03:32:42;;;;;;;0.00;0.00;;;16.00;80.90;;;;;;4994746;28;20583;-76
2024/02/22 03:35:09;;;;;;;0.10;0.10;;;16.00;81.00;;;;;;5017255;28;20057;-76
2024/02/22 03:37:38;;;;;;;0.00;0.00;;;16.00;81.10;;;;;;4999873;28;20081;-76
2024/02/22 03:40:05;;;;;;;0.10;0.00;;;16.00;80.90;;;;;;4985741;28;20050;-76
2024/02/22 03:42:31;;;;;;;0.10;0.10;;;16.00;81.00;;;;;;5013657;28;20064;-76
2024/02/22 03:44:57;;;;;;;0.00;0.00;;;16.00;80.90;;;;;;5003420;28;20045;-76
2024/02/22 03:47:22;;;;;;;0.20;0.10;;;16.00;80.90;;;;;;5012901;28;20046;-76
2024/02/22 03:49:48;;;;;;;0.00;0.00;;;16.00;80.90;;;;;;4986536;28;20464;-76
2024/02/22 03:52:13;;;;;;;0.03;0.00;;;16.00;81.00;;;;;;5007409;28;20046;-76
2024/02/22 03:54:40;;;;;;;0.08;0.03;;;16.00;81.10;;;;;;5004908;28;20543;-76
2024/02/22 03:57:05;;;;;;;0.20;0.10;;;16.00;80.90;;;;;;5002716;28;20046;-76
2024/02/22 03:59:31;;;;;;;0.20;0.10;;;16.00;80.80;;;;;;5001296;28;20543;-76
2024/02/22 04:01:56;;;;;;;0.00;0.00;;;16.00;80.80;;;;;;5037606;28;20050;-76
2024/02/22 04:04:22;;;;;;;0.00;0.00;;;16.00;80.90;;;;;;5016123;28;20407;-77
2024/02/22 04:06:49;;;;;;;0.10;0.00;;;16.00;80.90;;;;;;5008067;28;20096;-76
2024/02/22 04:09:14;;;;;;;0.00;0.00;;;16.00;81.10;;;;;;4989616;28;20045;-76
2024/02/22 04:11:40;;;;;;;0.10;0.10;;;16.00;81.00;;;;;;5003701;28;20046;-76
2024/02/22 04:14:06;;;;;;;0.05;0.05;;;16.00;81.10;;;;;;5001133;28;20503;-76
2024/02/22 04:16:31;;;;;;;0.00;0.00;;;16.00;81.00;;;;;;4999979;28;20419;-76
2024/02/22 04:18:57;;;;;;;0.00;0.00;;;16.00;80.90;;;;;;4987031;28;20121;-76
2024/02/22 04:21:22;;;;;;;0.20;0.10;;;16.00;81.00;;;;;;5005719;28;20107;-77
2024/02/22 04:23:48;;;;;;;0.00;0.00;;;16.00;80.90;;;;;;5003295;28;20431;-76
2024/02/22 04:26:14;;;;;;;0.00;0.00;;;15.90;81.00;;;;;;5019853;28;20049;-76
2024/02/22 04:28:39;;;;;;;0.00;0.00;;;16.00;81.00;;;;;;5017501;28;20512;-76
2024/02/22 04:31:05;;;;;;;0.10;0.10;;;16.00;80.90;;;;;;5006363;28;20042;-76
2024/02/22 04:33:31;;;;;;;0.00;0.00;;;16.00;81.20;;;;;;5005453;28;20038;-76
2024/02/22 04:35:57;;;;;;;0.10;0.10;;;16.00;80.90;;;;;;5019612;28;20073;-76
2024/02/22 04:38:22;;;;;;;0.10;0.08;;;16.00;81.20;;;;;;4986410;28;20074;-76
2024/02/22 04:40:48;;;;;;;0.00;0.00;;;16.00;80.90;;;;;;4987400;28;20105;-76
2024/02/22 04:43:14;;;;;;;0.00;0.00;;;16.00;80.70;;;;;;5006504;28;20061;-76
2024/02/22 04:45:39;;;;;;;0.00;0.00;;;16.00;80.90;;;;;;5004978;28;20500;-76
2024/02/22 04:48:06;;;;;;;0.00;0.00;;;16.00;80.60;;;;;;5011350;28;20046;-76
2024/02/22 04:50:32;;;;;;;0.05;0.00;;;16.00;80.60;;;;;;5005686;28;20204;-76
2024/02/22 04:52:59;;;;;;;0.00;0.00;;;16.00;80.70;;;;;;5003563;28;20412;-76
2024/02/22 04:55:25;;;;;;;0.00;0.00;;;16.00;80.90;;;;;;5006709;28;20046;-76
2024/02/22 04:57:50;;;;;;;0.00;0.00;;;16.00;80.70;;;;;;5018422;28;20038;-76
2024/02/22 05:00:16;;;;;;;0.00;0.00;;;16.00;80.70;;;;;;5004945;28;20069;-76
2024/02/22 05:02:41;;;;;;;0.00;0.00;;;15.90;80.60;;;;;;5004392;28;20046;-76
2024/02/22 05:05:07;;;;;;;0.00;0.00;;;16.00;80.60;;;;;;4989783;28;20026;-76
2024/02/22 05:07:33;;;;;;;0.10;0.10;;;16.00;80.60;;;;;;5003953;28;20096;-76
2024/02/22 05:10:00;;;;;;;0.00;0.00;;;16.00;80.60;;;;;;5007930;28;20052;-76
2024/02/22 05:12:26;;;;;;;0.03;0.00;;;16.00;80.60;;;;;;5016543;28;20050;-76
2024/02/22 05:14:51;;;;;;;0.00;0.00;;;16.00;80.50;;;;;;5001766;28;20057;-76
2024/02/22 05:17:19;;;;;;;0.03;0.03;;;16.00;80.80;;;;;;4971684;28;20040;-76
2024/02/22 05:19:44;;;;;;;0.00;0.00;;;16.00;80.70;;;;;;5004763;28;20062;-76
2024/02/22 05:22:10;;;;;;;0.00;0.00;;;16.00;80.80;;;;;;5010814;28;20045;-76
2024/02/22 05:24:35;;;;;;;0.00;0.00;;;16.00;80.60;;;;;;5011714;28;20044;-76
2024/02/22 05:27:01;;;;;;;0.00;0.00;;;16.00;80.50;;;;;;5002147;28;20779;-76
2024/02/22 05:29:26;;;;;;;0.00;0.00;;;15.90;80.50;;;;;;4987791;28;20049;-76
2024/02/22 05:31:55;;;;;;;0.00;0.00;;;16.00;81.40;;;;;;4984253;28;20042;-76
2024/02/22 05:34:20;;;;;;;0.03;0.00;;;16.00;80.60;;;;;;5008170;28;20041;-76
2024/02/22 05:36:46;;;;;;;0.22;0.00;;;16.00;80.70;;;;;;4999700;28;20056;-76
2024/02/22 05:39:11;;;;;;;0.00;0.00;;;15.90;80.60;;;;;;5002906;28;20120;-76
2024/02/22 05:41:37;;;;;;;0.00;0.00;;;15.90;80.50;;;;;;5004571;28;20038;-76
2024/02/22 05:44:03;;;;;;;0.00;0.00;;;15.90;80.40;;;;;;5013579;28;20045;-76
2024/02/22 05:46:29;;;;;;;0.00;0.00;;;15.90;80.40;;;;;;4999260;28;20061;-77
2024/02/22 05:48:55;;;;;;;0.00;0.00;;;15.90;80.50;;;;;;5002718;28;20405;-76
2024/02/22 05:51:20;;;;;;;0.08;0.08;;;16.00;80.50;;;;;;5006048;28;20435;-76
2024/02/22 05:53:47;;;;;;;0.00;0.00;;;15.90;80.40;;;;;;5014978;28;20045;-76
2024/02/22 05:56:13;;;;;;;0.00;0.00;;;16.00;80.50;;;;;;4999676;28;20070;-76
2024/02/22 05:58:39;;;;;;;0.00;0.00;;;16.00;80.40;;;;;;5000931;28;20037;-76
2024/02/22 06:01:05;;;;;;;0.00;0.00;;;15.90;80.30;;;;;;4985960;28;20416;-76
2024/02/22 06:03:31;;;;;;;0.00;0.00;;;16.00;80.50;;;;;;5001141;28;20128;-76
2024/02/22 06:05:57;;;;;;;0.00;0.00;;;16.00;80.50;;;;;;5002522;28;20508;-76
2024/02/22 06:08:22;;;;;;;0.10;0.00;;;15.90;80.50;;;;;;5003069;28;20451;-76
2024/02/22 06:10:49;;;;;;;0.00;0.00;;;15.90;80.30;;;;;;4986996;28;20053;-76
2024/02/22 06:13:14;;;;;;;0.10;0.10;;;15.90;80.30;;;;;;5005869;28;20034;-76
2024/02/22 06:15:40;;;;;;;0.00;0.00;;;15.90;80.30;;;;;;5004296;28;20034;-76
2024/02/22 06:18:06;;;;;;;0.00;0.00;;;15.90;80.30;;;;;;5003475;28;20512;-75
2024/02/22 06:20:31;;;;;;;0.00;0.00;;;16.00;80.60;;;;;;5016948;28;20069;-76
2024/02/22 06:22:59;;;;;;;0.00;0.00;;;15.90;80.30;;;;;;5001124;28;20042;-75
2024/02/22 06:25:26;;;;;;;0.00;0.00;;;15.90;80.30;;;;;;4998575;28;20068;-75
2024/02/22 06:27:51;;;;;;;0.00;0.00;;;15.90;80.30;;;;;;5006762;28;20034;-75
2024/02/22 06:30:17;;;;;;;0.28;0.10;;;15.90;80.30;;;;;;5002491;28;20052;-75
2024/02/22 06:32:42;;;;;;;0.00;0.00;;;15.90;80.30;;;;;;5004301;28;20050;-76
2024/02/22 06:35:08;;;;;;;0.20;0.00;;;15.90;80.30;;;;;;5012810;28;20038;-76
2024/02/22 06:37:34;;;;;;;0.00;0.00;;;15.90;80.30;;;;;;5003737;28;20073;-76
2024/02/22 06:40:00;;;;;;;0.00;0.00;;;15.90;80.30;;;;;;4989350;28;20081;-76
2024/02/22 06:42:26;;;;;;;0.00;0.00;;;15.90;80.50;;;;;;5003626;28;20066;-76
2024/02/22 06:44:52;;;;;;;0.08;0.00;;;15.90;80.10;;;;;;5001064;28;20053;-76
2024/02/22 06:47:17;;;;;;;0.00;0.00;;;15.90;80.10;;;;;;5019454;28;20048;-76
2024/02/22 06:49:43;;;;;;;0.00;0.00;;;15.90;80.10;;;;;;4986315;28;20034;-76
2024/02/22 06:52:08;;;;;;;0.20;0.00;;;15.90;80.20;;;;;;4989192;28;20120;-76
2024/02/22 06:54:37;;;;;;;0.00;0.00;;;15.90;80.20;;;;;;5016042;28;20590;-76
2024/02/22 06:57:05;;;;;;;0.00;0.00;;;15.90;80.10;;;;;;5016720;28;20042;-76
2024/02/22 06:59:31;;;;;;;0.00;0.00;;;15.90;80.00;;;;;;4999239;28;20057;-76
2024/02/22 07:01:57;;;;;;;0.00;0.00;;;15.90;80.00;;;;;;4980751;28;20532;-76
2024/02/22 07:04:22;;;;;;;0.00;0.00;;;15.90;80.90;;;;;;5001519;28;20044;-76
2024/02/22 07:06:48;;;;;;;0.10;0.00;;;15.90;80.20;;;;;;5003271;28;20050;-76
2024/02/22 07:09:13;;;;;;;0.00;0.00;;;15.90;80.10;;;;;;5001013;28;20075;-76
2024/02/22 07:11:39;;;;;;;0.00;0.00;;;15.90;80.10;;;;;;5003240;28;20061;-76
2024/02/22 07:14:05;;;;;;;0.00;0.00;;;15.90;80.10;;;;;;4982207;28;20507;-75
2024/02/22 07:16:31;;;;;;;0.00;0.00;;;15.90;80.20;;;;;;5015416;28;20052;-77
2024/02/22 07:18:57;;;;;;;0.00;0.00;;;15.90;80.50;;;;;;4989321;28;20532;-77
2024/02/22 07:21:23;;;;;;;0.00;0.00;;;15.90;80.10;;;;;;5004547;28;20044;-76
2024/02/22 07:23:48;;;;;;;0.00;0.00;;;16.00;80.10;;;;;;4999199;28;20606;-76
2024/02/22 07:26:14;;;;;;;0.00;0.00;;;16.00;79.80;;;;;;5018510;28;20030;-76
2024/02/22 07:28:40;;;;;;;0.47;0.00;;;16.00;79.90;;;;;;4989642;28;20049;-77
2024/02/22 07:31:06;;;;;;;0.00;0.00;;;16.00;79.80;;;;;;5000515;28;20121;-76
2024/02/22 07:33:32;;;;;;;0.00;0.00;;;16.00;80.00;;;;;;5006790;28;20169;-79
2024/02/22 07:35:58;;;;;;;0.00;0.00;;;16.00;79.90;;;;;;5007841;28;20038;-76
2024/02/22 07:38:23;;;;;;;0.05;0.00;;;16.00;79.90;;;;;;5007417;28;20104;-76
2024/02/22 07:40:54;;;;;;;0.00;0.00;;;16.10;79.70;;;;;;5021451;28;20038;-76
2024/02/22 07:43:19;;;;;;;0.00;0.00;;;16.10;80.00;;;;;;5002877;28;20508;-76
2024/02/22 07:45:45;;;;;;;0.15;0.00;;;16.00;80.70;;;;;;5006326;28;20046;-76
2024/02/22 07:48:11;;;;;;;0.15;0.08;;;16.00;80.00;;;;;;4985461;28;20042;-76
2024/02/22 07:50:36;;;;;;;0.08;0.00;;;16.00;80.00;;;;;;5005636;28;20120;-76
2024/02/22 07:53:02;;;;;;;0.00;0.00;;;16.00;80.10;;;;;;5019529;28;20053;-76
2024/02/22 07:55:28;;;;;;;0.00;0.00;;;16.00;80.00;;;;;;5018323;28;20457;-76
2024/02/22 07:57:54;;;;;;;0.00;0.00;;;16.00;80.10;;;;;;5007254;28;20060;-76
2024/02/22 08:00:20;;;;;;;0.35;0.00;;;16.00;80.10;;;;;;5004658;28;20042;-76
2024/02/22 08:02:45;;;;;;;0.00;0.00;;;16.00;80.10;;;;;;5004118;28;20056;-76
2024/02/22 08:05:11;;;;;;;0.15;0.10;;;16.00;80.10;;;;;;5006821;28;20118;-76
2024/02/22 08:07:38;;;;;;;0.03;0.03;;;16.00;80.20;;;;;;5004201;28;20058;-76
2024/02/22 08:10:05;;;;;;;0.00;0.00;;;15.90;80.30;;;;;;5019557;28;20045;-76
2024/02/22 08:12:31;;;;;;;0.10;0.10;;;15.90;80.20;;;;;;5004805;28;20130;-77
2024/02/22 08:14:57;;;;;;;0.17;0.10;;;15.90;80.40;;;;;;5006493;28;20042;-76
2024/02/22 08:17:23;;;;;;;0.10;0.00;;;15.90;80.20;;;;;;5002705;28;20057;-76
2024/02/22 08:19:48;;;;;;;0.10;0.10;;;16.00;80.70;;;;;;5003163;28;20042;-76
2024/02/22 08:22:14;;;;;;;0.00;0.00;;;16.00;80.50;;;;;;5009823;28;20578;-76
2024/02/22 08:24:40;;;;;;;0.00;0.00;;;16.00;80.60;;;;;;4987380;28;20049;-76
2024/02/22 08:27:06;;;;;;;0.08;0.00;;;15.90;80.50;;;;;;5017920;28;20057;-76
2024/02/22 08:29:31;;;;;;;0.00;0.00;;;16.00;80.50;;;;;;5000046;28;20066;-76
2024/02/22 08:31:57;;;;;;;0.00;0.00;;;15.90;80.50;;;;;;5017592;28;20034;-76
2024/02/22 08:34:23;;;;;;;0.10;0.10;;;16.00;80.60;;;;;;5006285;28;20385;-76
2024/02/22 08:36:48;;;;;;;0.20;0.00;;;16.00;80.60;;;;;;4992524;28;20044;-76
2024/02/22 08:39:16;;;;;;;1.02;0.03;;;16.00;80.50;;;;;;5020850;28;20046;-76
2024/02/22 08:41:41;;;;;;;0.10;0.00;;;16.00;80.70;;;;;;5019117;28;20562;-77
2024/02/22 08:44:07;;;;;;;0.00;0.00;;;16.00;80.60;;;;;;5011887;28;20054;-76
2024/02/22 08:46:32;;;;;;;0.00;0.00;;;16.00;80.50;;;;;;5026605;28;20045;-76
2024/02/22 08:48:58;;;;;;;0.00;0.00;;;16.00;80.40;;;;;;5008128;28;20486;-76
2024/02/22 08:51:23;;;;;;;0.20;0.00;;;16.00;80.60;;;;;;5017752;28;20068;-76
2024/02/22 08:53:50;;;;;;;0.00;0.00;;;16.00;80.60;;;;;;5017142;28;20504;-76
2024/02/22 08:56:15;;;;;;;0.00;0.00;;;16.00;80.70;;;;;;5007277;28;20038;-76
2024/02/22 08:58:42;;;;;;;0.00;0.00;;;16.00;80.50;;;;;;4996139;28;20562;-76
2024/02/22 09:01:07;;;;;;;0.00;0.00;;;16.00;80.50;;;;;;5023116;28;20046;-76
2024/02/22 09:03:33;;;;;;;0.00;0.00;;;16.00;80.30;;;;;;5006969;28;20742;-76
2024/02/22 09:05:58;;;;;;;0.13;0.00;;;16.00;80.50;;;;;;5005019;28;20050;-76
2024/02/22 09:08:25;;;;;;;0.00;0.00;;;16.00;80.40;;;;;;5020226;28;20526;-76
2024/02/22 09:10:52;;;;;;;0.00;0.00;;;16.00;80.40;;;;;;5002773;28;20056;-76
2024/02/22 09:13:17;;;;;;;0.00;0.00;;;16.00;80.40;;;;;;4992561;28;20048;-76
2024/02/22 09:15:49;;;;;;;0.00;0.00;;;16.00;80.50;;;;;;5004664;28;20419;-77
2024/02/22 09:18:18;;;;;;;0.08;0.00;;;16.00;80.30;;;;;;5003898;28;20053;-76
2024/02/22 09:20:46;;;;;;;0.17;0.15;;;16.00;80.20;;;;;;5005733;28;20137;-76
2024/02/22 09:23:13;;;;;;;0.00;0.00;;;16.00;80.20;;;;;;5001357;28;20480;-76
2024/02/22 09:25:38;;;;;;;0.10;0.10;;;16.00;80.10;;;;;;5017694;28;20050;-78
2024/02/22 09:28:04;;;;;;;0.00;0.00;;;16.00;80.10;;;;;;5022010;28;20054;-76
2024/02/22 09:30:31;;;;;;;0.10;0.00;;;16.00;80.10;;;;;;4999744;28;20125;-76
2024/02/22 09:32:57;;;;;;;0.00;0.00;;;16.10;80.20;;;;;;4989242;28;20559;-76
2024/02/22 09:35:22;;;;;;;0.00;0.00;;;16.10;80.10;;;;;;5005188;28;20045;-76
2024/02/22 09:37:48;;;;;;;0.03;0.00;;;16.00;80.00;;;;;;5001765;28;20038;-76
2024/02/22 09:40:14;;;;;;;0.00;0.00;;;16.10;80.10;;;;;;5014985;28;20060;-76
2024/02/22 09:42:43;;;;;;;0.20;0.00;;;16.10;79.90;;;;;;5005130;28;20060;-77
2024/02/22 09:45:09;;;;;;;0.00;0.00;;;16.10;80.00;;;;;;5018483;28;20046;-76
2024/02/22 09:47:34;;;;;;;0.00;0.00;;;16.10;79.90;;;;;;5002879;28;20119;-76
2024/02/22 09:50:00;;;;;;;0.00;0.00;;;16.10;80.00;;;;;;5016564;28;20458;-76
2024/02/22 09:52:25;;;;;;;0.00;0.00;;;16.10;79.90;;;;;;4988975;28;20041;-77
2024/02/22 09:54:51;;;;;;;0.00;0.00;;;16.10;80.00;;;;;;5000509;28;20133;-76
2024/02/22 09:57:17;;;;;;;0.10;0.00;;;16.10;79.90;;;;;;5018157;28;20050;-76
2024/02/22 09:59:49;;;;;;;0.05;0.03;;;16.10;80.00;;;;;;5000235;28;20103;-77
2024/02/22 10:02:14;;;;;;;0.00;0.00;;;16.10;79.90;;;;;;5002379;28;20045;-76
2024/02/22 10:04:50;;;;;;;0.10;0.00;;;16.10;79.80;;;;;;5002954;28;20049;-76
2024/02/22 10:07:28;;;;;;;0.00;0.00;;;16.10;79.70;;;;;;5014607;28;20042;-76
2024/02/22 10:09:53;;;;;;;0.10;0.10;;;16.10;79.50;;;;;;5017088;28;20049;-76
2024/02/22 10:12:26;;;;;;;0.00;0.00;;;16.20;79.00;;;;;;5015442;28;20041;-76
2024/02/22 10:14:52;;;;;;;0.00;0.00;;;16.20;78.90;;;;;;4967710;28;20128;-76
2024/02/22 10:17:23;;;;;;;0.00;0.00;;;16.20;78.60;;;;;;5016781;28;20120;-76
2024/02/22 10:20:03;;;;;;;0.00;0.00;;;16.30;78.60;;;;;;4999977;28;20432;-76
2024/02/22 10:22:29;;;;;;;0.05;0.03;;;16.30;78.50;;;;;;5001935;28;20520;-76
2024/02/22 10:25:05;;;;;;;0.15;0.00;;;16.30;78.60;;;;;;5000160;28;20085;-76
2024/02/22 10:27:30;;;;;;;0.05;0.00;;;16.30;78.50;;;;;;4984923;28;20192;-76
2024/02/22 10:29:58;;;;;;;0.00;0.00;;;16.30;78.30;;;;;;5014598;28;20389;-76
2024/02/22 10:32:23;;;;;;;0.10;0.10;;;16.30;78.60;;;;;;5004473;28;20096;-76
2024/02/22 10:34:50;;;;;;;0.08;0.00;;;16.30;78.60;;;;;;4987538;28;20220;-76
2024/02/22 10:37:16;;;;;;;0.20;0.13;;;16.30;78.40;;;;;;5005594;28;20042;-76
2024/02/22 10:39:44;;;;;;;0.03;0.03;;;16.30;78.50;;;;;;5004456;28;20104;-76
2024/02/22 10:42:11;;;;;;;0.15;0.15;;;16.30;78.50;;;;;;5017947;28;20057;-76
2024/02/22 10:44:37;;;;;;;0.10;0.03;;;16.30;78.50;;;;;;4987730;28;20046;-76
2024/02/22 10:47:03;;;;;;;0.10;0.00;;;16.30;78.50;;;;;;4984140;28;20064;-76
2024/02/22 10:49:31;;;;;;;0.00;0.00;;;16.40;78.40;;;;;;5020368;28;20052;-76
2024/02/22 10:51:57;;;;;;;0.00;0.00;;;16.40;78.40;;;;;;4988419;28;20054;-76
2024/02/22 10:57:02;;;;;;;0.10;0.10;;;16.50;77.60;;;;;;5182317;23;20058;-80
2024/02/22 10:59:28;;;;;;;0.00;0.00;;;16.50;77.60;;;;;;4966660;28;20038;-80
2024/02/22 11:01:54;;;;;;;0.10;0.00;;;16.50;77.60;;;;;;4969179;28;20134;-80
2024/02/22 11:04:19;;;;;;;0.10;0.10;;;16.50;78.40;;;;;;4968171;28;20027;-80
2024/02/22 11:06:47;;;;;;;0.00;0.00;;;16.50;77.70;;;;;;4973012;28;20089;-80
2024/02/22 11:09:17;;;;;;;0.10;0.10;;;16.50;77.70;;;;;;4995587;28;20018;-80
2024/02/22 11:11:43;;;;;;;0.00;0.00;;;16.50;77.60;;;;;;4978744;28;20038;-80
2024/02/22 11:14:09;;;;;;;0.10;0.10;;;16.50;77.70;;;;;;4994833;28;20027;-80
2024/02/22 11:16:35;;;;;;;0.00;0.00;;;16.50;77.80;;;;;;4978164;28;20026;-80
2024/02/22 11:19:15;;;;;;;0.10;0.08;;;16.50;77.80;;;;;;4981412;28;20062;-80
2024/02/22 11:21:42;;;;;;;0.30;0.10;;;16.50;77.80;;;;;;4989907;28;20046;-80
2024/02/22 11:24:08;;;;;;;0.00;0.00;;;16.50;77.70;;;;;;4978804;28;20065;-80
2024/02/22 11:26:34;;;;;;;0.10;0.00;;;16.50;77.70;;;;;;4978554;28;20077;-80
2024/02/22 11:29:00;;;;;;;0.00;0.00;;;16.50;77.70;;;;;;4989913;28;20031;-80
2024/02/22 11:31:26;;;;;;;0.22;0.03;;;16.60;77.70;;;;;;5002435;28;20078;-80
2024/02/22 11:33:52;;;;;;;0.10;0.10;;;16.60;77.30;;;;;;4973988;28;20026;-80
2024/02/22 11:36:18;;;;;;;0.17;0.10;;;16.60;77.50;;;;;;4990908;28;20101;-80
2024/02/22 11:38:45;;;;;;;0.00;0.00;;;16.50;77.50;;;;;;4986019;28;20117;-80
2024/02/22 11:41:12;;;;;;;0.00;0.00;;;16.50;77.50;;;;;;4986983;28;20595;-80
2024/02/22 11:43:38;;;;;;;0.10;0.00;;;16.50;77.40;;;;;;4989963;28;20026;-80
2024/02/22 11:46:05;;;;;;;0.00;0.00;;;16.50;77.30;;;;;;4971047;28;20033;-80
2024/02/22 11:48:30;;;;;;;0.10;0.10;;;16.50;77.40;;;;;;5020670;28;20025;-80
2024/02/22 11:50:56;;;;;;;0.00;0.00;;;16.50;77.30;;;;;;4987116;28;20038;-80
2024/02/22 11:53:22;;;;;;;0.00;0.00;;;16.50;77.10;;;;;;5002222;28;20113;-80
2024/02/22 11:55:51;;;;;;;0.10;0.10;;;16.50;77.30;;;;;;5002553;28;20049;-80
2024/02/22 11:58:17;;;;;;;0.00;0.00;;;16.50;77.40;;;;;;4985356;28;20408;-80
2024/02/22 12:00:44;;;;;;;0.10;0.10;;;16.50;77.60;;;;;;4971090;28;20030;-80
2024/02/22 12:03:10;;;;;;;0.03;0.00;;;16.50;77.10;;;;;;4985767;28;20026;-80
2024/02/22 12:05:35;;;;;;;0.10;0.10;;;16.50;77.20;;;;;;4969128;28;20026;-80
2024/02/22 12:08:01;;;;;;;0.10;0.10;;;16.50;77.90;;;;;;4985589;28;20121;-80
2024/02/22 12:10:26;;;;;;;0.10;0.00;;;16.50;77.30;;;;;;4971139;28;20149;-80
2024/02/22 12:12:52;;;;;;;0.20;0.10;;;16.50;77.10;;;;;;4973909;28;20053;-80
2024/02/22 12:15:19;;;;;;;0.30;0.10;;;16.50;77.30;;;;;;5007292;28;20026;-80
2024/02/22 12:17:44;;;;;;;0.17;0.10;;;16.50;77.20;;;;;;4990059;28;20014;-80
2024/02/22 12:20:12;;;;;;;0.00;0.00;;;16.50;77.10;;;;;;4989099;28;20042;-80
2024/02/22 12:22:38;;;;;;;0.00;0.00;;;16.50;77.20;;;;;;4973328;28;20149;-80
2024/02/22 12:25:04;;;;;;;0.10;0.00;;;16.50;77.30;;;;;;4989607;28;20508;-80
2024/02/22 12:27:30;;;;;;;0.10;0.05;;;16.50;77.00;;;;;;5006049;28;20035;-80
2024/02/22 12:29:57;;;;;;;0.10;0.10;;;16.50;77.10;;;;;;4992033;28;20077;-80
2024/02/22 12:32:23;;;;;;;0.20;0.10;;;16.50;77.10;;;;;;5006383;28;20014;-80
2024/02/22 12:34:57;;;;;;;0.00;0.00;;;16.50;77.10;;;;;;5009233;28;20434;-80
2024/02/22 12:37:23;;;;;;;0.22;0.10;;;16.40;77.10;;;;;;4991422;28;20114;-80
2024/02/22 12:39:49;;;;;;;0.00;0.00;;;16.50;77.10;;;;;;4992166;28;20097;-80
2024/02/22 12:42:15;;;;;;;0.10;0.08;;;16.40;77.30;;;;;;4991971;28;20394;-80
2024/02/22 12:44:40;;;;;;;0.00;0.00;;;16.40;77.50;;;;;;5009064;28;20018;-80